sensor_id;sensor_type;location;lat;lon;timestamp;temperature;humidity
24224;DHT22;12359;49.716;9.212;2024-01-07T00:02:10;6.50;1.00
24224;DHT22;12359;49.716;9.212;2024-01-07T00:04:36;6.50;1.00
24224;DHT22;12359;49.716;9.212;2024-01-07T00:07:02;6.40;1.00
24224;DHT22;12359;49.716;9.212;2024-01-07T00:09:27;6.40;1.00
24224;DHT22;12359;49.716;9.212;2024-01-07T00:11:53;6.30;1.00
24224;DHT22;12359;49.716;9.212;2024-01-07T00:14:19;6.40;1.00
24224;DHT22;12359;49.716;9.212;2024-01-07T00:16:44;6.30;1.00
24224;DHT22;12359;49.716;9.212;2024-01-07T00:19:10;6.30;1.00
24224;DHT22;12359;49.716;9.212;2024-01-07T00:21:35;6.30;1.00
24224;DHT22;12359;49.716;9.212;2024-01-07T00:24:01;6.30;1.00
24224;DHT22;12359;49.716;9.212;2024-01-07T00:26:26;6.30;1.00
24224;DHT22;12359;49.716;9.212;2024-01-07T00:28:52;6.20;1.00
24224;DHT22;12359;49.716;9.212;2024-01-07T00:31:17;6.20;1.00
24224;DHT22;12359;49.716;9.212;2024-01-07T00:33:43;6.30;1.00
24224;DHT22;12359;49.716;9.212;2024-01-07T00:36:08;6.30;1.00
24224;DHT22;12359;49.716;9.212;2024-01-07T00:38:34;6.30;1.00
24224;DHT22;12359;49.716;9.212;2024-01-07T00:40:59;6.30;1.00
24224;DHT22;12359;49.716;9.212;2024-01-07T00:43:25;6.20;1.00
24224;DHT22;12359;49.716;9.212;2024-01-07T00:45:50;6.20;1.00
24224;DHT22;12359;49.716;9.212;2024-01-07T00:48:16;6.20;9.30
24224;DHT22;12359;49.716;9.212;2024-01-07T00:50:42;6.20;13.20
24224;DHT22;12359;49.716;9.212;2024-01-07T00:53:07;6.20;13.80
24224;DHT22;12359;49.716;9.212;2024-01-07T00:55:33;6.20;21.40
24224;DHT22;12359;49.716;9.212;2024-01-07T00:58:01;6.20;24.70
24224;DHT22;12359;49.716;9.212;2024-01-07T01:00:26;6.10;25.30
24224;DHT22;12359;49.716;9.212;2024-01-07T01:02:52;6.10;25.60
24224;DHT22;12359;49.716;9.212;2024-01-07T01:05:18;6.10;33.00
24224;DHT22;12359;49.716;9.212;2024-01-07T01:07:44;6.10;37.20
24224;DHT22;12359;49.716;9.212;2024-01-07T01:10:09;6.10;33.20
24224;DHT22;12359;49.716;9.212;2024-01-07T01:12:35;6.10;39.90
24224;DHT22;12359;49.716;9.212;2024-01-07T01:15:00;6.10;41.60
24224;DHT22;12359;49.716;9.212;2024-01-07T01:17:26;6.10;38.80
24224;DHT22;12359;49.716;9.212;2024-01-07T01:19:51;6.10;33.10
24224;DHT22;12359;49.716;9.212;2024-01-07T01:22:17;6.10;36.40
24224;DHT22;12359;49.716;9.212;2024-01-07T01:24:43;6.10;34.10
24224;DHT22;12359;49.716;9.212;2024-01-07T01:27:14;6.10;37.00
24224;DHT22;12359;49.716;9.212;2024-01-07T01:29:40;6.10;32.50
24224;DHT22;12359;49.716;9.212;2024-01-07T01:32:06;6.10;33.50
24224;DHT22;12359;49.716;9.212;2024-01-07T01:34:32;6.10;39.20
24224;DHT22;12359;49.716;9.212;2024-01-07T01:36:57;6.00;34.50
24224;DHT22;12359;49.716;9.212;2024-01-07T01:39:23;6.00;37.10
24224;DHT22;12359;49.716;9.212;2024-01-07T01:41:48;6.00;40.90
24224;DHT22;12359;49.716;9.212;2024-01-07T01:44:14;6.10;42.50
24224;DHT22;12359;49.716;9.212;2024-01-07T01:46:39;6.10;40.70
24224;DHT22;12359;49.716;9.212;2024-01-07T01:49:06;6.10;41.60
24224;DHT22;12359;49.716;9.212;2024-01-07T01:51:32;6.10;38.30
24224;DHT22;12359;49.716;9.212;2024-01-07T01:53:57;6.00;39.90
24224;DHT22;12359;49.716;9.212;2024-01-07T01:56:23;6.00;46.20
24224;DHT22;12359;49.716;9.212;2024-01-07T01:58:49;6.10;45.40
24224;DHT22;12359;49.716;9.212;2024-01-07T02:01:15;6.10;48.70
24224;DHT22;12359;49.716;9.212;2024-01-07T02:03:41;6.10;45.60
24224;DHT22;12359;49.716;9.212;2024-01-07T02:06:06;6.10;45.80
24224;DHT22;12359;49.716;9.212;2024-01-07T02:08:32;6.20;44.70
24224;DHT22;12359;49.716;9.212;2024-01-07T02:10:58;6.10;45.20
24224;DHT22;12359;49.716;9.212;2024-01-07T02:13:23;6.20;43.90
24224;DHT22;12359;49.716;9.212;2024-01-07T02:15:49;6.20;42.10
24224;DHT22;12359;49.716;9.212;2024-01-07T02:18:14;6.20;41.90
24224;DHT22;12359;49.716;9.212;2024-01-07T02:20:40;6.20;43.00
24224;DHT22;12359;49.716;9.212;2024-01-07T02:23:05;6.20;39.70
24224;DHT22;12359;49.716;9.212;2024-01-07T02:25:34;6.20;41.20
24224;DHT22;12359;49.716;9.212;2024-01-07T02:28:00;6.10;40.30
24224;DHT22;12359;49.716;9.212;2024-01-07T02:30:25;6.20;46.40
24224;DHT22;12359;49.716;9.212;2024-01-07T02:32:52;6.10;40.90
24224;DHT22;12359;49.716;9.212;2024-01-07T02:35:17;6.10;42.00
24224;DHT22;12359;49.716;9.212;2024-01-07T02:37:43;6.10;45.40
24224;DHT22;12359;49.716;9.212;2024-01-07T02:40:09;6.10;47.70
24224;DHT22;12359;49.716;9.212;2024-01-07T02:42:34;6.20;46.80
24224;DHT22;12359;49.716;9.212;2024-01-07T02:45:00;6.10;47.00
24224;DHT22;12359;49.716;9.212;2024-01-07T02:47:25;6.10;44.20
24224;DHT22;12359;49.716;9.212;2024-01-07T02:49:51;6.10;40.00
24224;DHT22;12359;49.716;9.212;2024-01-07T02:52:17;6.10;41.80
24224;DHT22;12359;49.716;9.212;2024-01-07T02:54:42;6.00;44.80
24224;DHT22;12359;49.716;9.212;2024-01-07T02:57:08;6.00;44.00
24224;DHT22;12359;49.716;9.212;2024-01-07T02:59:33;6.00;44.60
24224;DHT22;12359;49.716;9.212;2024-01-07T03:01:59;6.00;45.00
24224;DHT22;12359;49.716;9.212;2024-01-07T03:04:24;6.00;45.50
24224;DHT22;12359;49.716;9.212;2024-01-07T03:06:50;6.00;47.80
24224;DHT22;12359;49.716;9.212;2024-01-07T03:09:15;6.00;46.50
24224;DHT22;12359;49.716;9.212;2024-01-07T03:11:41;6.00;43.90
24224;DHT22;12359;49.716;9.212;2024-01-07T03:14:07;6.00;48.30
24224;DHT22;12359;49.716;9.212;2024-01-07T03:16:32;6.00;47.40
24224;DHT22;12359;49.716;9.212;2024-01-07T03:18:58;6.00;43.70
24224;DHT22;12359;49.716;9.212;2024-01-07T03:21:24;6.00;43.50
24224;DHT22;12359;49.716;9.212;2024-01-07T03:23:50;6.00;47.60
24224;DHT22;12359;49.716;9.212;2024-01-07T03:26:16;6.00;42.60
24224;DHT22;12359;49.716;9.212;2024-01-07T03:28:42;6.00;49.60
24224;DHT22;12359;49.716;9.212;2024-01-07T03:31:08;6.00;41.60
24224;DHT22;12359;49.716;9.212;2024-01-07T03:33:34;6.00;42.40
24224;DHT22;12359;49.716;9.212;2024-01-07T03:36:00;5.90;40.30
24224;DHT22;12359;49.716;9.212;2024-01-07T03:38:25;5.90;42.60
24224;DHT22;12359;49.716;9.212;2024-01-07T03:40:51;5.90;44.80
24224;DHT22;12359;49.716;9.212;2024-01-07T03:43:16;5.80;47.40
24224;DHT22;12359;49.716;9.212;2024-01-07T03:45:42;5.90;48.20
24224;DHT22;12359;49.716;9.212;2024-01-07T03:48:08;5.90;45.90
24224;DHT22;12359;49.716;9.212;2024-01-07T03:50:34;5.90;46.40
24224;DHT22;12359;49.716;9.212;2024-01-07T03:52:59;5.90;42.70
24224;DHT22;12359;49.716;9.212;2024-01-07T03:55:25;5.90;43.60
24224;DHT22;12359;49.716;9.212;2024-01-07T03:57:51;5.80;45.30
24224;DHT22;12359;49.716;9.212;2024-01-07T04:00:16;5.90;42.20
24224;DHT22;12359;49.716;9.212;2024-01-07T04:02:42;5.80;41.30
24224;DHT22;12359;49.716;9.212;2024-01-07T04:05:09;5.90;44.30
24224;DHT22;12359;49.716;9.212;2024-01-07T04:07:34;5.90;46.10
24224;DHT22;12359;49.716;9.212;2024-01-07T04:10:00;5.90;43.30
24224;DHT22;12359;49.716;9.212;2024-01-07T04:12:25;5.90;43.50
24224;DHT22;12359;49.716;9.212;2024-01-07T04:14:51;5.80;41.30
24224;DHT22;12359;49.716;9.212;2024-01-07T04:17:16;5.90;43.80
24224;DHT22;12359;49.716;9.212;2024-01-07T04:19:42;5.90;42.00
24224;DHT22;12359;49.716;9.212;2024-01-07T04:22:08;5.80;37.20
24224;DHT22;12359;49.716;9.212;2024-01-07T04:24:33;5.80;39.70
24224;DHT22;12359;49.716;9.212;2024-01-07T04:26:59;5.80;45.80
24224;DHT22;12359;49.716;9.212;2024-01-07T04:29:24;5.80;39.00
24224;DHT22;12359;49.716;9.212;2024-01-07T04:31:50;5.80;41.10
24224;DHT22;12359;49.716;9.212;2024-01-07T04:34:15;5.70;40.10
24224;DHT22;12359;49.716;9.212;2024-01-07T04:36:41;5.70;40.00
24224;DHT22;12359;49.716;9.212;2024-01-07T04:39:06;5.70;44.60
24224;DHT22;12359;49.716;9.212;2024-01-07T04:41:32;5.70;45.70
24224;DHT22;12359;49.716;9.212;2024-01-07T04:43:57;5.80;46.00
24224;DHT22;12359;49.716;9.212;2024-01-07T04:46:23;5.80;40.90
24224;DHT22;12359;49.716;9.212;2024-01-07T04:48:48;5.80;39.70
24224;DHT22;12359;49.716;9.212;2024-01-07T04:51:14;5.80;39.60
24224;DHT22;12359;49.716;9.212;2024-01-07T04:53:40;5.80;37.00
24224;DHT22;12359;49.716;9.212;2024-01-07T04:56:05;5.80;37.10
24224;DHT22;12359;49.716;9.212;2024-01-07T04:58:31;5.70;39.10
24224;DHT22;12359;49.716;9.212;2024-01-07T05:00:56;5.70;38.90
24224;DHT22;12359;49.716;9.212;2024-01-07T05:03:22;5.70;41.20
24224;DHT22;12359;49.716;9.212;2024-01-07T05:05:47;5.70;41.50
24224;DHT22;12359;49.716;9.212;2024-01-07T05:08:13;5.70;44.50
24224;DHT22;12359;49.716;9.212;2024-01-07T05:10:38;5.70;40.90
24224;DHT22;12359;49.716;9.212;2024-01-07T05:13:04;5.70;39.00
24224;DHT22;12359;49.716;9.212;2024-01-07T05:15:32;5.60;37.70
24224;DHT22;12359;49.716;9.212;2024-01-07T05:17:58;5.60;38.00
24224;DHT22;12359;49.716;9.212;2024-01-07T05:20:23;5.50;35.40
24224;DHT22;12359;49.716;9.212;2024-01-07T05:22:49;5.50;39.00
24224;DHT22;12359;49.716;9.212;2024-01-07T05:25:15;5.60;44.20
24224;DHT22;12359;49.716;9.212;2024-01-07T05:27:40;5.60;40.40
24224;DHT22;12359;49.716;9.212;2024-01-07T05:30:06;5.60;42.20
24224;DHT22;12359;49.716;9.212;2024-01-07T05:32:33;5.70;40.60
24224;DHT22;12359;49.716;9.212;2024-01-07T05:34:58;5.70;38.80
24224;DHT22;12359;49.716;9.212;2024-01-07T05:37:24;5.60;37.20
24224;DHT22;12359;49.716;9.212;2024-01-07T05:39:49;5.70;40.00
24224;DHT22;12359;49.716;9.212;2024-01-07T05:42:15;5.70;39.60
24224;DHT22;12359;49.716;9.212;2024-01-07T05:44:40;5.60;35.60
24224;DHT22;12359;49.716;9.212;2024-01-07T05:47:06;5.60;39.50
24224;DHT22;12359;49.716;9.212;2024-01-07T05:49:31;5.70;37.10
24224;DHT22;12359;49.716;9.212;2024-01-07T05:51:58;5.70;34.60
24224;DHT22;12359;49.716;9.212;2024-01-07T05:54:23;5.60;30.50
24224;DHT22;12359;49.716;9.212;2024-01-07T05:56:49;5.60;35.20
24224;DHT22;12359;49.716;9.212;2024-01-07T05:59:14;5.60;33.30
24224;DHT22;12359;49.716;9.212;2024-01-07T06:01:40;5.60;34.50
24224;DHT22;12359;49.716;9.212;2024-01-07T06:04:05;5.50;38.40
24224;DHT22;12359;49.716;9.212;2024-01-07T06:06:31;5.50;42.50
24224;DHT22;12359;49.716;9.212;2024-01-07T06:08:57;5.50;45.40
24224;DHT22;12359;49.716;9.212;2024-01-07T06:11:22;5.50;42.20
24224;DHT22;12359;49.716;9.212;2024-01-07T06:13:48;5.50;41.90
24224;DHT22;12359;49.716;9.212;2024-01-07T06:16:13;5.50;39.60
24224;DHT22;12359;49.716;9.212;2024-01-07T06:18:39;5.50;42.00
24224;DHT22;12359;49.716;9.212;2024-01-07T06:21:05;5.50;41.50
24224;DHT22;12359;49.716;9.212;2024-01-07T06:23:34;5.50;42.10
24224;DHT22;12359;49.716;9.212;2024-01-07T06:25:59;5.60;40.90
24224;DHT22;12359;49.716;9.212;2024-01-07T06:28:25;5.50;39.00
24224;DHT22;12359;49.716;9.212;2024-01-07T06:30:50;5.60;39.80
24224;DHT22;12359;49.716;9.212;2024-01-07T06:33:16;5.50;39.50
24224;DHT22;12359;49.716;9.212;2024-01-07T06:35:41;5.60;39.70
24224;DHT22;12359;49.716;9.212;2024-01-07T06:38:07;5.60;42.70
24224;DHT22;12359;49.716;9.212;2024-01-07T06:40:32;5.60;41.10
24224;DHT22;12359;49.716;9.212;2024-01-07T06:42:58;5.60;40.80
24224;DHT22;12359;49.716;9.212;2024-01-07T06:45:24;5.60;43.80
24224;DHT22;12359;49.716;9.212;2024-01-07T06:47:49;5.60;42.00
24224;DHT22;12359;49.716;9.212;2024-01-07T06:50:15;5.60;38.10
24224;DHT22;12359;49.716;9.212;2024-01-07T06:52:40;5.60;41.90
24224;DHT22;12359;49.716;9.212;2024-01-07T06:55:06;5.60;41.10
24224;DHT22;12359;49.716;9.212;2024-01-07T06:57:32;5.60;36.30
24224;DHT22;12359;49.716;9.212;2024-01-07T06:59:57;5.60;38.00
24224;DHT22;12359;49.716;9.212;2024-01-07T07:02:23;5.60;30.30
24224;DHT22;12359;49.716;9.212;2024-01-07T07:04:48;5.60;13.70
24224;DHT22;12359;49.716;9.212;2024-01-07T07:07:16;5.50;1.00
24224;DHT22;12359;49.716;9.212;2024-01-07T07:09:42;5.60;1.00
24224;DHT22;12359;49.716;9.212;2024-01-07T07:12:08;5.60;1.00
24224;DHT22;12359;49.716;9.212;2024-01-07T07:14:33;5.60;99.90
24224;DHT22;12359;49.716;9.212;2024-01-07T07:17:00;5.50;99.90
24224;DHT22;12359;49.716;9.212;2024-01-07T07:19:25;5.50;99.90
24224;DHT22;12359;49.716;9.212;2024-01-07T07:23:12;5.60;99.90
24224;DHT22;12359;49.716;9.212;2024-01-07T07:25:38;5.50;99.90
24224;DHT22;12359;49.716;9.212;2024-01-07T07:28:03;5.40;41.00
24224;DHT22;12359;49.716;9.212;2024-01-07T07:30:29;5.40;1.00
24224;DHT22;12359;49.716;9.212;2024-01-07T07:32:55;5.40;99.90
24224;DHT22;12359;49.716;9.212;2024-01-07T07:35:20;5.40;1.00
24224;DHT22;12359;49.716;9.212;2024-01-07T07:37:46;5.40;55.60
24224;DHT22;12359;49.716;9.212;2024-01-07T07:40:11;5.40;1.90
24224;DHT22;12359;49.716;9.212;2024-01-07T07:42:38;5.50;7.80
24224;DHT22;12359;49.716;9.212;2024-01-07T07:45:04;5.50;84.30
24224;DHT22;12359;49.716;9.212;2024-01-07T07:47:30;5.40;99.90
24224;DHT22;12359;49.716;9.212;2024-01-07T07:49:56;5.40;99.90
24224;DHT22;12359;49.716;9.212;2024-01-07T07:52:22;5.40;99.90
24224;DHT22;12359;49.716;9.212;2024-01-07T07:54:53;5.40;99.90
24224;DHT22;12359;49.716;9.212;2024-01-07T07:57:20;5.40;99.90
24224;DHT22;12359;49.716;9.212;2024-01-07T07:59:50;5.40;99.90
24224;DHT22;12359;49.716;9.212;2024-01-07T08:02:16;5.30;1.00
24224;DHT22;12359;49.716;9.212;2024-01-07T08:04:41;5.20;99.90
24224;DHT22;12359;49.716;9.212;2024-01-07T08:07:10;5.20;1.00
24224;DHT22;12359;49.716;9.212;2024-01-07T08:09:36;5.20;99.90
24224;DHT22;12359;49.716;9.212;2024-01-07T08:12:04;5.20;99.90
24224;DHT22;12359;49.716;9.212;2024-01-07T08:14:31;5.10;99.90
24224;DHT22;12359;49.716;9.212;2024-01-07T08:16:56;5.20;1.00
24224;DHT22;12359;49.716;9.212;2024-01-07T08:19:22;5.30;99.90
24224;DHT22;12359;49.716;9.212;2024-01-07T08:21:47;5.30;1.00
24224;DHT22;12359;49.716;9.212;2024-01-07T08:24:13;5.30;99.90
24224;DHT22;12359;49.716;9.212;2024-01-07T08:26:38;5.20;45.50
24224;DHT22;12359;49.716;9.212;2024-01-07T08:29:04;5.20;1.00
24224;DHT22;12359;49.716;9.212;2024-01-07T08:31:30;5.20;1.00
24224;DHT22;12359;49.716;9.212;2024-01-07T08:33:56;5.20;99.90
24224;DHT22;12359;49.716;9.212;2024-01-07T08:36:22;5.20;99.90
24224;DHT22;12359;49.716;9.212;2024-01-07T08:38:47;5.20;99.90
24224;DHT22;12359;49.716;9.212;2024-01-07T08:41:16;5.20;99.90
24224;DHT22;12359;49.716;9.212;2024-01-07T08:43:42;5.10;99.90
24224;DHT22;12359;49.716;9.212;2024-01-07T08:46:07;5.10;1.00
24224;DHT22;12359;49.716;9.212;2024-01-07T08:48:33;5.10;99.90
24224;DHT22;12359;49.716;9.212;2024-01-07T08:50:58;5.00;78.00
24224;DHT22;12359;49.716;9.212;2024-01-07T08:53:24;5.00;99.90
24224;DHT22;12359;49.716;9.212;2024-01-07T08:55:50;5.00;99.90
24224;DHT22;12359;49.716;9.212;2024-01-07T08:58:15;5.10;99.90
24224;DHT22;12359;49.716;9.212;2024-01-07T09:00:41;5.10;99.90
24224;DHT22;12359;49.716;9.212;2024-01-07T09:03:07;5.10;99.90
24224;DHT22;12359;49.716;9.212;2024-01-07T09:05:32;5.20;1.00
24224;DHT22;12359;49.716;9.212;2024-01-07T09:07:58;5.20;17.90
24224;DHT22;12359;49.716;9.212;2024-01-07T09:10:23;5.20;1.00
24224;DHT22;12359;49.716;9.212;2024-01-07T09:12:50;5.20;2.40
24224;DHT22;12359;49.716;9.212;2024-01-07T09:15:17;5.10;1.00
24224;DHT22;12359;49.716;9.212;2024-01-07T09:17:43;5.10;99.90
24224;DHT22;12359;49.716;9.212;2024-01-07T09:20:09;5.00;99.90
24224;DHT22;12359;49.716;9.212;2024-01-07T09:22:35;5.00;99.90
24224;DHT22;12359;49.716;9.212;2024-01-07T09:25:03;5.10;1.00
24224;DHT22;12359;49.716;9.212;2024-01-07T09:27:29;5.10;94.10
24224;DHT22;12359;49.716;9.212;2024-01-07T09:29:55;5.10;1.00
24224;DHT22;12359;49.716;9.212;2024-01-07T09:32:20;5.10;1.00
24224;DHT22;12359;49.716;9.212;2024-01-07T09:34:46;5.10;1.00
24224;DHT22;12359;49.716;9.212;2024-01-07T09:37:12;5.10;59.20
24224;DHT22;12359;49.716;9.212;2024-01-07T09:39:41;5.00;1.00
24224;DHT22;12359;49.716;9.212;2024-01-07T09:42:16;5.00;1.00
24224;DHT22;12359;49.716;9.212;2024-01-07T09:44:42;5.00;1.00
24224;DHT22;12359;49.716;9.212;2024-01-07T09:47:12;5.10;99.90
24224;DHT22;12359;49.716;9.212;2024-01-07T09:49:38;5.10;99.90
24224;DHT22;12359;49.716;9.212;2024-01-07T09:52:04;5.10;3.20
24224;DHT22;12359;49.716;9.212;2024-01-07T09:54:30;5.10;99.90
24224;DHT22;12359;49.716;9.212;2024-01-07T09:56:58;5.10;99.90
24224;DHT22;12359;49.716;9.212;2024-01-07T09:59:25;5.20;99.90
24224;DHT22;12359;49.716;9.212;2024-01-07T10:01:52;5.20;99.90
24224;DHT22;12359;49.716;9.212;2024-01-07T10:04:18;5.20;99.90
24224;DHT22;12359;49.716;9.212;2024-01-07T10:06:44;5.20;1.00
24224;DHT22;12359;49.716;9.212;2024-01-07T10:09:11;5.20;1.00
24224;DHT22;12359;49.716;9.212;2024-01-07T10:11:36;5.30;99.90
24224;DHT22;12359;49.716;9.212;2024-01-07T10:14:02;5.30;99.90
24224;DHT22;12359;49.716;9.212;2024-01-07T10:16:28;5.30;99.90
24224;DHT22;12359;49.716;9.212;2024-01-07T10:18:53;5.30;99.90
24224;DHT22;12359;49.716;9.212;2024-01-07T10:21:19;5.30;99.90
24224;DHT22;12359;49.716;9.212;2024-01-07T10:23:44;5.30;1.00
24224;DHT22;12359;49.716;9.212;2024-01-07T10:26:10;5.20;99.90
24224;DHT22;12359;49.716;9.212;2024-01-07T10:28:36;5.20;99.90
24224;DHT22;12359;49.716;9.212;2024-01-07T10:31:03;5.20;99.90
24224;DHT22;12359;49.716;9.212;2024-01-07T10:33:32;5.30;99.90
24224;DHT22;12359;49.716;9.212;2024-01-07T10:36:01;5.30;99.90
24224;DHT22;12359;49.716;9.212;2024-01-07T10:38:31;5.30;99.90
24224;DHT22;12359;49.716;9.212;2024-01-07T10:40:56;5.30;44.00
24224;DHT22;12359;49.716;9.212;2024-01-07T10:43:24;5.40;99.90
24224;DHT22;12359;49.716;9.212;2024-01-07T10:45:51;5.40;1.00
24224;DHT22;12359;49.716;9.212;2024-01-07T10:48:18;5.30;96.20
24224;DHT22;12359;49.716;9.212;2024-01-07T10:50:47;5.40;99.90
24224;DHT22;12359;49.716;9.212;2024-01-07T10:53:20;5.30;99.90
24224;DHT22;12359;49.716;9.212;2024-01-07T10:55:54;5.30;99.90
24224;DHT22;12359;49.716;9.212;2024-01-07T10:58:20;5.30;99.90
24224;DHT22;12359;49.716;9.212;2024-01-07T11:00:46;5.30;1.00
24224;DHT22;12359;49.716;9.212;2024-01-07T11:03:14;5.20;1.00
24224;DHT22;12359;49.716;9.212;2024-01-07T11:05:54;5.20;1.00
24224;DHT22;12359;49.716;9.212;2024-01-07T11:08:24;5.10;99.00
24224;DHT22;12359;49.716;9.212;2024-01-07T11:10:53;5.00;99.90
24224;DHT22;12359;49.716;9.212;2024-01-07T11:16:00;4.80;25.00
24224;DHT22;12359;49.716;9.212;2024-01-07T11:18:26;4.70;99.90
24224;DHT22;12359;49.716;9.212;2024-01-07T11:20:58;4.70;99.90
24224;DHT22;12359;49.716;9.212;2024-01-07T11:25:52;4.60;99.90
24224;DHT22;12359;49.716;9.212;2024-01-07T11:28:18;4.60;99.90
24224;DHT22;12359;49.716;9.212;2024-01-07T11:30:45;4.70;99.90
24224;DHT22;12359;49.716;9.212;2024-01-07T11:33:13;4.70;1.00
24224;DHT22;12359;49.716;9.212;2024-01-07T11:35:59;4.70;37.20
24224;DHT22;12359;49.716;9.212;2024-01-07T11:38:25;4.70;99.90
24224;DHT22;12359;49.716;9.212;2024-01-07T11:40:50;4.80;99.90
24224;DHT22;12359;49.716;9.212;2024-01-07T11:43:16;4.80;99.90
24224;DHT22;12359;49.716;9.212;2024-01-07T11:45:42;4.80;99.90
24224;DHT22;12359;49.716;9.212;2024-01-07T11:48:07;4.80;99.90
24224;DHT22;12359;49.716;9.212;2024-01-07T11:50:35;4.80;1.00
24224;DHT22;12359;49.716;9.212;2024-01-07T11:53:00;4.80;1.00
24224;DHT22;12359;49.716;9.212;2024-01-07T11:55:26;4.70;1.00
24224;DHT22;12359;49.716;9.212;2024-01-07T11:57:52;4.60;1.00
24224;DHT22;12359;49.716;9.212;2024-01-07T12:00:18;4.60;1.00
24224;DHT22;12359;49.716;9.212;2024-01-07T12:02:43;4.70;99.90
24224;DHT22;12359;49.716;9.212;2024-01-07T12:05:09;4.80;55.90
24224;DHT22;12359;49.716;9.212;2024-01-07T12:07:36;4.80;15.30
24224;DHT22;12359;49.716;9.212;2024-01-07T12:10:02;4.70;14.20
24224;DHT22;12359;49.716;9.212;2024-01-07T12:12:27;4.70;1.00
24224;DHT22;12359;49.716;9.212;2024-01-07T12:14:54;4.50;1.00
24224;DHT22;12359;49.716;9.212;2024-01-07T12:17:21;4.50;1.00
24224;DHT22;12359;49.716;9.212;2024-01-07T12:19:47;4.50;99.90
24224;DHT22;12359;49.716;9.212;2024-01-07T12:22:13;4.50;1.00
24224;DHT22;12359;49.716;9.212;2024-01-07T12:24:38;4.50;55.60
24224;DHT22;12359;49.716;9.212;2024-01-07T12:27:07;4.50;99.90
24224;DHT22;12359;49.716;9.212;2024-01-07T12:29:32;4.50;99.90
24224;DHT22;12359;49.716;9.212;2024-01-07T12:31:59;4.50;99.90
24224;DHT22;12359;49.716;9.212;2024-01-07T12:34:25;4.60;99.90
24224;DHT22;12359;49.716;9.212;2024-01-07T12:36:50;4.50;99.90
24224;DHT22;12359;49.716;9.212;2024-01-07T12:39:16;4.50;1.00
24224;DHT22;12359;49.716;9.212;2024-01-07T12:41:42;4.40;1.00
24224;DHT22;12359;49.716;9.212;2024-01-07T12:44:07;4.40;1.00
24224;DHT22;12359;49.716;9.212;2024-01-07T12:46:34;4.40;99.90
24224;DHT22;12359;49.716;9.212;2024-01-07T12:48:59;4.40;8.40
24224;DHT22;12359;49.716;9.212;2024-01-07T12:51:25;4.40;1.00
24224;DHT22;12359;49.716;9.212;2024-01-07T12:53:50;4.50;73.10
24224;DHT22;12359;49.716;9.212;2024-01-07T12:56:16;4.50;99.90
24224;DHT22;12359;49.716;9.212;2024-01-07T12:58:42;4.50;1.00
24224;DHT22;12359;49.716;9.212;2024-01-07T13:01:07;4.50;99.90
24224;DHT22;12359;49.716;9.212;2024-01-07T13:03:33;4.50;99.90
24224;DHT22;12359;49.716;9.212;2024-01-07T13:05:59;4.50;99.90
24224;DHT22;12359;49.716;9.212;2024-01-07T13:08:24;4.50;99.90
24224;DHT22;12359;49.716;9.212;2024-01-07T13:10:52;4.40;99.90
24224;DHT22;12359;49.716;9.212;2024-01-07T13:13:19;4.20;85.30
24224;DHT22;12359;49.716;9.212;2024-01-07T13:15:44;4.10;1.00
24224;DHT22;12359;49.716;9.212;2024-01-07T13:18:10;4.00;99.90
24224;DHT22;12359;49.716;9.212;2024-01-07T13:20:37;3.90;99.90
24224;DHT22;12359;49.716;9.212;2024-01-07T13:23:05;3.90;99.90
24224;DHT22;12359;49.716;9.212;2024-01-07T13:25:30;3.70;99.90
24224;DHT22;12359;49.716;9.212;2024-01-07T13:27:56;3.60;1.00
24224;DHT22;12359;49.716;9.212;2024-01-07T13:30:22;3.50;1.00
24224;DHT22;12359;49.716;9.212;2024-01-07T13:32:48;3.90;97.60
24224;DHT22;12359;49.716;9.212;2024-01-07T13:35:14;4.30;1.00
24224;DHT22;12359;49.716;9.212;2024-01-07T13:37:40;4.00;99.90
24224;DHT22;12359;49.716;9.212;2024-01-07T13:40:09;3.80;99.90
24224;DHT22;12359;49.716;9.212;2024-01-07T13:42:39;3.70;99.90
24224;DHT22;12359;49.716;9.212;2024-01-07T13:45:05;3.50;19.90
24224;DHT22;12359;49.716;9.212;2024-01-07T13:47:31;3.50;99.90
24224;DHT22;12359;49.716;9.212;2024-01-07T13:49:56;3.50;99.50
24224;DHT22;12359;49.716;9.212;2024-01-07T13:52:22;3.40;93.30
24224;DHT22;12359;49.716;9.212;2024-01-07T13:54:48;3.30;99.90
24224;DHT22;12359;49.716;9.212;2024-01-07T13:57:13;3.30;99.90
24224;DHT22;12359;49.716;9.212;2024-01-07T13:59:39;3.30;99.90
24224;DHT22;12359;49.716;9.212;2024-01-07T14:02:07;3.20;99.90
24224;DHT22;12359;49.716;9.212;2024-01-07T14:04:33;3.20;99.90
24224;DHT22;12359;49.716;9.212;2024-01-07T14:06:59;3.20;99.90
24224;DHT22;12359;49.716;9.212;2024-01-07T14:09:24;3.20;99.90
24224;DHT22;12359;49.716;9.212;2024-01-07T14:11:50;3.20;99.90
24224;DHT22;12359;49.716;9.212;2024-01-07T14:14:16;3.20;99.90
24224;DHT22;12359;49.716;9.212;2024-01-07T14:16:42;3.20;99.90
24224;DHT22;12359;49.716;9.212;2024-01-07T14:19:07;3.30;99.90
24224;DHT22;12359;49.716;9.212;2024-01-07T14:21:33;3.40;99.90
24224;DHT22;12359;49.716;9.212;2024-01-07T14:23:58;3.50;99.90
24224;DHT22;12359;49.716;9.212;2024-01-07T14:26:24;3.50;1.00
24224;DHT22;12359;49.716;9.212;2024-01-07T14:28:49;3.60;99.90
24224;DHT22;12359;49.716;9.212;2024-01-07T14:31:16;3.60;1.00
24224;DHT22;12359;49.716;9.212;2024-01-07T14:33:42;3.60;90.30
24224;DHT22;12359;49.716;9.212;2024-01-07T14:36:07;3.60;25.20
24224;DHT22;12359;49.716;9.212;2024-01-07T14:38:39;3.60;99.90
24224;DHT22;12359;49.716;9.212;2024-01-07T14:41:05;3.70;99.90
24224;DHT22;12359;49.716;9.212;2024-01-07T14:43:31;3.70;99.90
24224;DHT22;12359;49.716;9.212;2024-01-07T14:45:56;3.70;47.30
24224;DHT22;12359;49.716;9.212;2024-01-07T14:48:22;3.70;1.00
24224;DHT22;12359;49.716;9.212;2024-01-07T14:50:47;3.70;99.90
24224;DHT22;12359;49.716;9.212;2024-01-07T14:53:13;3.80;99.90
24224;DHT22;12359;49.716;9.212;2024-01-07T14:55:38;3.70;99.90
24224;DHT22;12359;49.716;9.212;2024-01-07T14:58:04;3.60;99.90
24224;DHT22;12359;49.716;9.212;2024-01-07T15:00:30;3.60;99.90
24224;DHT22;12359;49.716;9.212;2024-01-07T15:02:55;3.50;99.90
24224;DHT22;12359;49.716;9.212;2024-01-07T15:05:21;3.40;1.00
24224;DHT22;12359;49.716;9.212;2024-01-07T15:07:46;3.30;99.90
24224;DHT22;12359;49.716;9.212;2024-01-07T15:10:14;3.30;99.90
24224;DHT22;12359;49.716;9.212;2024-01-07T15:12:40;3.30;99.90
24224;DHT22;12359;49.716;9.212;2024-01-07T15:15:05;3.30;99.90
24224;DHT22;12359;49.716;9.212;2024-01-07T15:17:32;3.40;99.90
24224;DHT22;12359;49.716;9.212;2024-01-07T15:19:57;3.30;99.90
24224;DHT22;12359;49.716;9.212;2024-01-07T15:22:23;3.20;1.00
24224;DHT22;12359;49.716;9.212;2024-01-07T15:24:48;3.10;1.00
24224;DHT22;12359;49.716;9.212;2024-01-07T15:27:14;3.10;42.90
24224;DHT22;12359;49.716;9.212;2024-01-07T15:29:39;3.10;99.90
24224;DHT22;12359;49.716;9.212;2024-01-07T15:32:05;3.10;99.90
24224;DHT22;12359;49.716;9.212;2024-01-07T15:34:31;3.00;99.90
24224;DHT22;12359;49.716;9.212;2024-01-07T15:36:56;3.10;1.90
24224;DHT22;12359;49.716;9.212;2024-01-07T15:39:22;3.10;24.00
24224;DHT22;12359;49.716;9.212;2024-01-07T15:41:47;3.10;1.00
24224;DHT22;12359;49.716;9.212;2024-01-07T15:44:13;3.00;1.00
24224;DHT22;12359;49.716;9.212;2024-01-07T15:46:38;2.90;99.90
24224;DHT22;12359;49.716;9.212;2024-01-07T15:49:04;2.90;1.00